Time,TemperatureF,DewpointF,PressureIn,WindDirection,WindDirectionDegrees,WindSpeedMPH,WindSpeedGustMPH,Humidity,HourlyPrecipIn,Conditions,Clouds,dailyrainin,SoftwareType,DateUTC
2013-09-03 00:14:00,71.0,66.0,30.08,NNE,16,9.0,12.0,85,0.00,,,0.00,,2013-09-03 04:14:00,
2013-09-03 00:25:00,72.0,63.0,30.07,North,5,3.0,6.0,74,0.00,,,0.00,,2013-09-03 04:25:00,
2013-09-03 00:44:00,72.0,64.0,30.08,NNE,15,7.0,9.0,75,0.00,,,0.00,,2013-09-03 04:44:00,
2013-09-03 00:53:00,71.0,65.0,30.08,NNE,16,9.0,11.0,82,0.00,,,0.00,,2013-09-03 04:53:00,
2013-09-03 01:12:00,71.0,65.0,30.08,NNE,12,10.0,11.0,82,0.00,,,0.00,,2013-09-03 05:12:00,
2013-09-03 01:23:00,70.0,66.0,30.07,NNE,18,13.0,14.0,87,0.00,,,0.00,,2013-09-03 05:23:00,
2013-09-03 01:43:00,70.0,65.0,30.07,NNE,12,9.0,14.0,83,0.00,,,0.00,,2013-09-03 05:43:00,
2013-09-03 01:52:00,72.0,65.0,30.06,NNW,342,6.0,8.0,78,0.00,,,0.00,,2013-09-03 05:52:00,
2013-09-03 02:12:00,72.0,65.0,30.06,NNW,338,6.0,8.0,78,0.00,,,0.00,,2013-09-03 06:12:00,
2013-09-03 02:22:00,72.0,65.0,30.05,NW,320,6.0,10.0,79,0.00,,,0.00,,2013-09-03 06:22:00,
2013-09-03 02:52:00,72.0,65.0,30.05,NW,309,7.0,9.0,80,0.00,,,0.00,,2013-09-03 06:52:00,
2013-09-03 03:12:00,72.0,65.0,30.05,NNW,335,7.0,8.0,79,0.00,,,0.00,,2013-09-03 07:12:00,
2013-09-03 03:22:00,70.0,65.0,30.05,NNE,13,13.0,17.0,85,0.00,,,0.00,,2013-09-03 07:22:00,
2013-09-03 03:53:00,71.0,65.0,30.05,NNW,345,5.0,6.0,80,0.00,,,0.00,,2013-09-03 07:53:00,
2013-09-03 04:11:00,71.0,65.0,30.05,NNW,330,3.0,7.0,81,0.00,,,0.00,,2013-09-03 08:11:00,
2013-09-03 04:22:00,71.0,65.0,30.06,North,9,4.0,6.0,81,0.00,,,0.00,,2013-09-03 08:22:00,
2013-09-03 04:52:00,71.0,65.0,30.06,NNE,12,11.0,13.0,82,0.00,,,0.00,,2013-09-03 08:52:00,
2013-09-03 05:11:00,70.0,64.0,30.05,NNE,22,14.0,18.0,81,0.00,,,0.00,,2013-09-03 09:11:00,
2013-09-03 05:22:00,70.0,64.0,30.05,NNE,18,13.0,17.0,80,0.00,,,0.00,,2013-09-03 09:22:00,
2013-09-03 05:43:00,69.0,65.0,30.04,NNE,22,20.0,23.0,88,0.00,,,0.00,,2013-09-03 09:43:00,
2013-09-03 05:53:00,65.0,63.0,30.04,North,349,29.0,34.0,92,0.00,,,0.00,,2013-09-03 09:53:00,
2013-09-03 06:13:00,63.0,61.0,30.04,North,358,29.0,34.0,92,0.00,,,0.00,,2013-09-03 10:13:00,
2013-09-03 06:23:00,65.0,60.0,30.05,NNE,18,24.0,30.0,84,0.00,,,0.00,,2013-09-03 10:23:00,
2013-09-03 06:42:00,69.0,60.0,30.06,NNE,23,21.0,26.0,72,0.00,,,0.00,,2013-09-03 10:42:00,
2013-09-03 07:12:00,65.0,60.0,30.08,NW,320,23.0,27.0,83,0.00,,,0.00,,2013-09-03 11:12:00,
2013-09-03 07:23:00,64.0,57.0,30.08,NNE,23,37.0,48.0,79,0.00,,,0.00,,2013-09-03 11:23:00,
2013-09-03 07:43:00,61.0,59.0,30.06,NE,39,47.0,53.0,93,0.05,,,0.05,,2013-09-03 11:43:00,
2013-09-03 10:42:00,66.0,56.0,30.08,NNE,16,21.0,25.0,70,0.00,,,0.05,,2013-09-03 14:42:00,
2013-09-03 10:52:00,67.0,56.0,30.08,North,5,28.0,32.0,69,0.00,,,0.05,,2013-09-03 14:52:00,
2013-09-03 11:22:00,66.0,57.0,30.10,NE,39,24.0,35.0,74,0.00,,,0.05,,2013-09-03 15:22:00,
2013-09-03 11:43:00,66.0,59.0,30.10,NNE,26,24.0,31.0,78,0.00,,,0.05,,2013-09-03 15:43:00,
2013-09-03 11:54:00,67.0,60.0,30.11,NE,37,23.0,27.0,78,0.00,,,0.05,,2013-09-03 15:54:00,
2013-09-03 12:14:00,67.0,60.0,30.11,NNE,20,23.0,30.0,79,0.00,,,0.05,,2013-09-03 16:14:00,
2013-09-03 12:24:00,67.0,60.0,30.11,NNE,23,20.0,26.0,79,0.00,,,0.05,,2013-09-03 16:24:00,
2013-09-03 12:43:00,68.0,62.0,30.12,NE,43,19.0,24.0,80,0.00,,,0.05,,2013-09-03 16:43:00,
2013-09-03 12:54:00,68.0,61.0,30.13,NE,50,16.0,21.0,79,0.00,,,0.05,,2013-09-03 16:54:00,
2013-09-03 13:13:00,69.0,62.0,30.13,NNE,33,14.0,20.0,79,0.00,,,0.05,,2013-09-03 17:13:00,
2013-09-03 13:23:00,69.0,61.0,30.12,NNE,25,15.0,20.0,76,0.00,,,0.05,,2013-09-03 17:23:00,
2013-09-03 13:43:00,70.0,62.0,30.12,NE,39,14.0,19.0,77,0.00,,,0.05,,2013-09-03 17:43:00,
2013-09-03 13:52:00,71.0,63.0,30.12,NE,37,12.0,20.0,75,0.00,,,0.05,,2013-09-03 17:52:00,
2013-09-03 14:12:00,71.0,64.0,30.12,NNE,13,13.0,19.0,78,0.00,,,0.05,,2013-09-03 18:12:00,
2013-09-03 14:22:00,71.0,62.0,30.12,NNE,27,15.0,21.0,74,0.00,,,0.05,,2013-09-03 18:22:00,
2013-09-03 14:43:00,72.0,64.0,30.11,NE,34,11.0,19.0,75,0.00,,,0.05,,2013-09-03 18:43:00,
2013-09-03 14:52:00,72.0,64.0,30.11,NE,34,13.0,15.0,76,0.00,,,0.05,,2013-09-03 18:52:00,
2013-09-03 15:11:00,72.0,63.0,30.11,NE,46,14.0,17.0,73,0.00,,,0.05,,2013-09-03 19:11:00,
2013-09-03 15:22:00,72.0,61.0,30.11,NE,39,18.0,20.0,68,0.00,,,0.05,,2013-09-03 19:22:00,
2013-09-03 15:42:00,72.0,62.0,30.11,NNE,30,16.0,18.0,70,0.00,,,0.05,,2013-09-03 19:42:00,
2013-09-03 15:52:00,72.0,61.0,30.09,NNE,22,18.0,21.0,68,0.00,,,0.05,,2013-09-03 19:52:00,
2013-09-03 16:11:00,73.0,62.0,30.09,NE,47,13.0,21.0,69,0.00,,,0.05,,2013-09-03 20:11:00,
2013-09-03 16:22:00,73.0,62.0,30.09,NNE,26,12.0,18.0,69,0.00,,,0.05,,2013-09-03 20:22:00,
2013-09-03 16:42:00,73.0,63.0,30.09,NNE,25,11.0,20.0,70,0.00,,,0.05,,2013-09-03 20:42:00,
2013-09-03 16:53:00,73.0,62.0,30.09,NE,35,12.0,17.0,69,0.00,,,0.05,,2013-09-03 20:53:00,
2013-09-03 17:12:00,73.0,62.0,30.08,NNE,32,16.0,20.0,68,0.00,,,0.05,,2013-09-03 21:12:00,
2013-09-03 17:22:00,73.0,61.0,30.08,NNE,13,17.0,18.0,66,0.00,,,0.05,,2013-09-03 21:22:00,
2013-09-03 17:44:00,73.0,61.0,30.09,NNE,32,14.0,17.0,67,0.00,,,0.05,,2013-09-03 21:44:00,
2013-09-03 17:54:00,73.0,62.0,30.09,NNE,28,13.0,17.0,68,0.00,,,0.05,,2013-09-03 21:54:00,
2013-09-03 18:13:00,72.0,60.0,30.09,NE,46,15.0,20.0,67,0.00,,,0.05,,2013-09-03 22:13:00,
2013-09-03 18:24:00,72.0,61.0,30.09,NE,41,18.0,22.0,68,0.00,,,0.05,,2013-09-03 22:24:00,
2013-09-03 18:53:00,72.0,60.0,30.09,NNE,30,17.0,22.0,65,0.00,,,0.05,,2013-09-03 22:53:00,
2013-09-03 19:12:00,73.0,61.0,30.09,NNE,26,18.0,23.0,66,0.00,,,0.05,,2013-09-03 23:12:00,
2013-09-03 19:23:00,73.0,61.0,30.09,NE,36,12.0,20.0,66,0.00,,,0.05,,2013-09-03 23:23:00,
2013-09-03 19:42:00,72.0,60.0,30.09,NNE,32,17.0,18.0,65,0.00,,,0.05,,2013-09-03 23:42:00,
2013-09-03 19:54:00,72.0,60.0,30.10,NNE,32,19.0,22.0,65,0.00,,,0.05,,2013-09-03 23:54:00,
2013-09-03 20:12:00,72.0,59.0,30.10,NE,34,22.0,23.0,64,0.00,,,0.05,,2013-09-04 00:12:00,
2013-09-03 20:22:00,72.0,59.0,30.11,NE,51,21.0,25.0,63,0.00,,,0.05,,2013-09-04 00:22:00,
2013-09-03 20:42:00,72.0,58.0,30.11,NE,46,20.0,22.0,61,0.00,,,0.05,,2013-09-04 00:42:00,
2013-09-03 20:52:00,71.0,61.0,30.12,NNE,33,22.0,24.0,70,0.00,,,0.05,,2013-09-04 00:52:00,
2013-09-03 21:12:00,71.0,60.0,30.13,NE,49,20.0,23.0,68,0.00,,,0.05,,2013-09-04 01:12:00,
2013-09-03 21:22:00,71.0,60.0,30.14,NE,43,19.0,24.0,68,0.00,,,0.05,,2013-09-04 01:22:00,
2013-09-03 21:42:00,71.0,61.0,30.14,NE,39,21.0,21.0,71,0.00,,,0.05,,2013-09-04 01:42:00,
2013-09-03 21:53:00,71.0,61.0,30.15,NNE,30,22.0,23.0,71,0.00,,,0.05,,2013-09-04 01:53:00,
2013-09-03 22:11:00,70.0,62.0,30.16,NNE,27,23.0,25.0,76,0.00,,,0.05,,2013-09-04 02:11:00,
2013-09-03 22:22:00,70.0,61.0,30.16,NNE,32,22.0,25.0,74,0.00,,,0.05,,2013-09-04 02:22:00,
2013-09-03 22:43:00,70.0,60.0,30.16,NE,43,22.0,23.0,71,0.00,,,0.05,,2013-09-04 02:43:00,
2013-09-03 22:52:00,70.0,60.0,30.17,NNE,30,18.0,20.0,71,0.00,,,0.05,,2013-09-04 02:52:00,
2013-09-03 23:11:00,70.0,61.0,30.17,NNE,27,17.0,19.0,73,0.00,,,0.05,,2013-09-04 03:11:00,
2013-09-03 23:22:00,70.0,59.0,30.17,NNE,30,19.0,20.0,67,0.00,,,0.05,,2013-09-04 03:22:00,
2013-09-03 23:44:00,70.0,59.0,30.17,NNE,26,18.0,20.0,68,0.00,,,0.05,,2013-09-04 03:44:00,
2013-09-03 23:54:00,70.0,60.0,30.18,NNE,32,13.0,17.0,70,0.00,,,0.05,,2013-09-04 03:54:00,